Time;durP1;ratioP1;P1;durP2;ratioP2;P2;SDS_P1;SDS_P2;PMS_P1;PMS_P2;Temp;Humidity;BMP_temperature;BMP_pressure;BME280_temperature;BME280_humidity;BME280_pressure;Samples;Min_cycle;Max_cycle;Signal;HPM_P1;HPM_P2
2022/09/07 00:02:11;;;;;;;1.87;1.20;;;24.80;65.30;;;;;;5006213;28;43383;-71
2022/09/07 00:04:39;;;;;;;1.03;1.03;;;24.70;65.40;;;;;;5006525;28;43412;-71
2022/09/07 00:07:08;;;;;;;1.00;1.00;;;24.70;66.50;;;;;;5005636;28;43617;-73
2022/09/07 00:09:36;;;;;;;1.20;1.20;;;24.70;65.80;;;;;;4988141;28;44626;-73
2022/09/07 00:12:05;;;;;;;1.00;1.00;;;24.60;65.60;;;;;;4988581;28;43395;-72
2022/09/07 00:14:33;;;;;;;1.17;1.13;;;24.60;65.70;;;;;;5005164;28;43534;-72
2022/09/07 00:17:01;;;;;;;0.90;0.90;;;24.50;66.20;;;;;;5005924;28;44107;-72
2022/09/07 00:19:30;;;;;;;1.00;1.00;;;24.50;66.30;;;;;;5005783;28;43533;-72
2022/09/07 00:21:58;;;;;;;1.10;1.10;;;24.50;66.00;;;;;;4988430;28;43463;-72
2022/09/07 00:24:27;;;;;;;1.20;1.20;;;24.50;66.00;;;;;;4987983;28;44120;-73
2022/09/07 00:26:55;;;;;;;1.13;1.13;;;24.40;66.60;;;;;;5007842;28;43914;-72
2022/09/07 00:29:23;;;;;;;1.20;1.20;;;24.50;66.80;;;;;;4991296;28;44379;-73
2022/09/07 00:31:51;;;;;;;1.63;1.30;;;24.50;66.30;;;;;;5009812;28;43385;-71
2022/09/07 00:34:19;;;;;;;1.10;1.10;;;24.60;66.20;;;;;;4991613;28;44189;-73
2022/09/07 00:36:47;;;;;;;1.10;1.10;;;24.60;66.10;;;;;;5009355;28;43597;-72
2022/09/07 00:39:16;;;;;;;1.17;1.17;;;24.60;66.00;;;;;;5009331;28;43637;-73
2022/09/07 00:41:45;;;;;;;1.17;1.17;;;24.50;66.30;;;;;;4991902;28;43362;-73
2022/09/07 00:45:07;;;;;;;1.03;1.03;;;24.50;66.30;;;;;;5009755;28;43713;-71
2022/09/07 00:47:43;;;;;;;1.10;1.10;;;24.50;66.10;;;;;;5006652;28;43868;-72
2022/09/07 00:50:15;;;;;;;1.10;1.10;;;24.50;66.00;;;;;;5008997;28;43406;-71
2022/09/07 00:52:43;;;;;;;1.00;1.00;;;24.50;67.30;;;;;;4988420;28;43465;-73
2022/09/07 00:55:12;;;;;;;1.00;1.00;;;24.50;66.60;;;;;;5001279;28;43545;-72
2022/09/07 00:57:43;;;;;;;1.17;1.17;;;24.60;66.40;;;;;;5002799;28;43757;-72
2022/09/07 01:00:11;;;;;;;1.07;1.07;;;24.60;66.10;;;;;;5008600;28;43412;-72
2022/09/07 01:02:39;;;;;;;1.20;1.20;;;24.60;66.00;;;;;;4990872;28;43789;-75
2022/09/07 01:05:14;;;;;;;1.10;1.10;;;24.60;66.20;;;;;;5009308;28;43377;-74
2022/09/07 01:07:42;;;;;;;1.20;1.20;;;24.60;66.40;;;;;;5008449;28;43689;-73
2022/09/07 01:10:10;;;;;;;0.90;0.90;;;24.50;66.30;;;;;;5008585;28;43430;-74
2022/09/07 01:12:38;;;;;;;1.20;1.20;;;24.50;66.00;;;;;;5008705;28;43440;-74
2022/09/07 01:15:08;;;;;;;1.10;1.10;;;24.50;65.90;;;;;;5008713;28;43860;-74
2022/09/07 01:17:47;;;;;;;1.10;1.10;;;24.50;66.60;;;;;;4990114;28;45924;-76
2022/09/07 01:20:49;;;;;;;1.10;1.10;;;24.50;67.30;;;;;;5008228;28;43685;-74
2022/09/07 01:23:56;;;;;;;1.00;1.00;;;24.60;66.30;;;;;;4990082;28;43420;-73
2022/09/07 01:26:47;;;;;;;1.10;1.10;;;24.60;66.10;;;;;;5002410;28;43417;-75
2022/09/07 01:29:19;;;;;;;1.40;1.10;;;24.60;65.90;;;;;;5008437;28;43768;-75
2022/09/07 01:31:50;;;;;;;1.10;1.10;;;24.50;66.50;;;;;;4990656;28;44317;-77
2022/09/07 01:34:21;;;;;;;1.10;1.10;;;24.50;66.40;;;;;;5008479;28;43385;-75
2022/09/07 01:36:50;;;;;;;1.30;1.30;;;24.50;66.30;;;;;;5008830;28;43300;-75
2022/09/07 01:39:18;;;;;;;1.20;1.20;;;24.50;66.00;;;;;;5007807;28;43621;-77
2022/09/07 01:41:48;;;;;;;1.10;1.10;;;24.50;66.60;;;;;;5008209;28;43369;-75
2022/09/07 01:44:19;;;;;;;1.13;1.13;;;24.50;67.50;;;;;;5008340;28;43349;-75
2022/09/07 01:46:51;;;;;;;1.20;1.20;;;24.50;66.60;;;;;;4982578;28;43751;-74
2022/09/07 01:49:21;;;;;;;1.03;1.03;;;24.40;66.20;;;;;;4990015;28;45999;-76
2022/09/07 01:51:51;;;;;;;1.00;1.00;;;24.40;66.90;;;;;;5008605;28;43920;-77
2022/09/07 01:54:22;;;;;;;1.13;1.13;;;24.40;67.00;;;;;;4990048;28;43432;-75
2022/09/07 01:56:51;;;;;;;1.20;1.20;;;24.50;66.70;;;;;;5002021;28;43444;-75
2022/09/07 01:59:22;;;;;;;1.10;1.10;;;24.60;66.30;;;;;;5001882;28;43903;-77
2022/09/07 02:01:51;;;;;;;1.20;1.20;;;24.70;65.90;;;;;;5000428;28;44448;-74
2022/09/07 02:04:21;;;;;;;1.13;1.13;;;24.70;65.80;;;;;;5006159;28;43859;-73
2022/09/07 02:06:49;;;;;;;1.00;1.00;;;24.70;65.70;;;;;;5008782;28;43436;-75
2022/09/07 02:09:19;;;;;;;1.00;1.00;;;24.70;65.90;;;;;;5006323;28;45468;-77
2022/09/07 02:11:48;;;;;;;1.20;1.20;;;24.60;66.20;;;;;;5008430;28;43374;-74
2022/09/07 02:14:18;;;;;;;1.10;1.10;;;24.60;66.20;;;;;;5007960;28;43357;-74
2022/09/07 02:16:52;;;;;;;0.90;0.90;;;24.50;66.00;;;;;;5006600;28;43508;-76
2022/09/07 02:19:20;;;;;;;0.90;0.90;;;24.50;66.00;;;;;;5007514;28;43828;-73
2022/09/07 02:21:49;;;;;;;0.93;0.93;;;24.50;66.80;;;;;;4989549;28;44602;-75
2022/09/07 02:24:19;;;;;;;0.97;0.97;;;24.50;66.70;;;;;;5007363;28;43394;-75
2022/09/07 02:26:48;;;;;;;1.00;1.00;;;24.50;66.30;;;;;;5006776;28;43468;-74
2022/09/07 02:29:16;;;;;;;1.00;1.00;;;24.70;66.00;;;;;;5005495;28;44636;-78
2022/09/07 02:31:46;;;;;;;1.13;1.13;;;24.70;65.80;;;;;;5007089;28;43940;-75
2022/09/07 02:34:15;;;;;;;1.00;1.00;;;24.70;65.70;;;;;;5006129;28;43395;-77
2022/09/07 02:36:45;;;;;;;1.10;1.10;;;24.70;65.60;;;;;;5007928;28;43511;-76
2022/09/07 02:39:14;;;;;;;1.20;1.20;;;24.60;65.90;;;;;;5006949;28;43601;-76
2022/09/07 02:41:42;;;;;;;1.10;1.10;;;24.60;66.30;;;;;;5007019;28;43446;-74
2022/09/07 02:44:12;;;;;;;1.10;1.10;;;24.60;66.30;;;;;;4989034;28;43409;-74
2022/09/07 02:46:51;;;;;;;1.10;1.10;;;24.50;65.90;;;;;;5007210;28;43566;-76
2022/09/07 02:49:27;;;;;;;1.00;1.00;;;24.50;66.40;;;;;;5005894;28;43604;-75
2022/09/07 02:51:58;;;;;;;0.90;0.90;;;24.50;66.80;;;;;;5000665;28;43259;-75
2022/09/07 02:54:33;;;;;;;1.13;1.00;;;24.40;66.60;;;;;;5000927;28;43417;-74
2022/09/07 02:57:05;;;;;;;1.10;1.10;;;24.40;66.30;;;;;;5007276;28;43341;-75
2022/09/07 02:59:44;;;;;;;1.00;1.00;;;24.40;66.70;;;;;;5006808;28;43782;-75
2022/09/07 03:02:16;;;;;;;1.00;1.00;;;24.40;67.00;;;;;;5006875;28;43382;-73
2022/09/07 03:04:49;;;;;;;1.00;1.00;;;24.40;66.70;;;;;;5006901;28;43455;-75
2022/09/07 03:07:18;;;;;;;1.10;1.10;;;24.60;66.40;;;;;;5007790;28;43378;-76
2022/09/07 03:09:48;;;;;;;1.10;1.10;;;24.70;66.00;;;;;;5006918;28;43617;-76
2022/09/07 03:12:16;;;;;;;0.97;0.97;;;24.70;66.60;;;;;;5006568;28;43496;-75
2022/09/07 03:14:44;;;;;;;0.90;0.90;;;24.70;65.70;;;;;;5006867;28;43911;-75
2022/09/07 03:17:12;;;;;;;1.20;1.20;;;24.70;65.70;;;;;;4989009;28;43580;-75
2022/09/07 03:19:40;;;;;;;1.00;1.00;;;24.60;66.20;;;;;;5006091;28;43847;-73
2022/09/07 03:22:10;;;;;;;1.10;1.10;;;24.60;67.00;;;;;;5006765;28;43305;-75
2022/09/07 03:24:38;;;;;;;0.93;0.93;;;24.60;66.10;;;;;;5005850;28;43408;-75
2022/09/07 03:27:06;;;;;;;1.00;1.00;;;24.50;66.00;;;;;;5007208;28;43389;-77
2022/09/07 03:29:34;;;;;;;0.90;0.90;;;24.50;66.60;;;;;;5006463;28;43616;-75
2022/09/07 03:32:08;;;;;;;1.10;1.10;;;24.50;66.70;;;;;;5006199;28;43394;-74
2022/09/07 03:34:36;;;;;;;1.00;1.00;;;24.40;66.40;;;;;;5006364;28;43946;-74
2022/09/07 03:37:04;;;;;;;1.00;1.00;;;24.40;66.30;;;;;;5006679;28;43970;-74
2022/09/07 03:39:35;;;;;;;1.10;1.10;;;24.40;66.80;;;;;;5006417;28;44448;-77
2022/09/07 03:42:03;;;;;;;1.10;1.10;;;24.40;67.00;;;;;;4999863;28;43527;-74
2022/09/07 03:44:32;;;;;;;1.20;1.20;;;24.40;66.70;;;;;;5000036;28;43307;-76
2022/09/07 03:47:00;;;;;;;1.00;1.00;;;24.40;66.40;;;;;;5000502;28;43381;-76
2022/09/07 03:49:28;;;;;;;1.00;1.00;;;24.40;66.60;;;;;;4999930;28;43606;-75
2022/09/07 03:51:56;;;;;;;1.00;1.00;;;24.40;67.20;;;;;;4982316;28;44340;-77
2022/09/07 03:54:24;;;;;;;1.10;1.10;;;24.40;67.00;;;;;;4998024;28;43721;-75
2022/09/07 03:56:53;;;;;;;1.10;1.10;;;24.50;66.60;;;;;;5000335;28;43462;-75
2022/09/07 03:59:21;;;;;;;0.80;0.80;;;24.70;66.30;;;;;;4998799;28;43573;-75
2022/09/07 04:01:49;;;;;;;0.90;0.90;;;24.70;65.90;;;;;;5005879;28;43949;-75
2022/09/07 04:04:18;;;;;;;1.10;1.10;;;24.70;65.80;;;;;;4988386;28;43432;-76
2022/09/07 04:06:46;;;;;;;1.10;1.10;;;24.70;65.60;;;;;;5006842;28;43432;-74
2022/09/07 04:09:14;;;;;;;1.00;1.00;;;24.70;66.00;;;;;;4988549;28;45776;-76
2022/09/07 04:11:42;;;;;;;1.17;1.10;;;24.60;66.00;;;;;;5006071;28;43347;-76
2022/09/07 04:14:12;;;;;;;1.10;1.10;;;24.60;66.10;;;;;;5005572;28;43398;-74
2022/09/07 04:16:40;;;;;;;1.20;1.20;;;24.60;66.00;;;;;;5006481;28;43322;-76
2022/09/07 04:19:08;;;;;;;1.00;1.00;;;24.50;66.20;;;;;;5005339;28;45189;-74
2022/09/07 04:21:36;;;;;;;1.00;1.00;;;24.50;66.70;;;;;;4987781;28;44939;-74
2022/09/07 04:24:04;;;;;;;0.90;0.90;;;24.50;66.60;;;;;;5005717;28;43450;-74
2022/09/07 04:26:34;;;;;;;1.00;1.00;;;24.50;66.30;;;;;;4988276;28;43972;-76
2022/09/07 04:29:02;;;;;;;2.17;1.17;;;24.40;66.10;;;;;;5005736;28;43747;-73
2022/09/07 04:31:33;;;;;;;1.17;1.17;;;24.40;67.00;;;;;;4987215;28;45190;-75
2022/09/07 04:34:01;;;;;;;1.33;1.10;;;24.40;67.00;;;;;;5005566;28;44045;-76
2022/09/07 04:36:29;;;;;;;2.83;1.07;;;24.50;66.80;;;;;;5005441;28;43635;-73
2022/09/07 04:38:59;;;;;;;1.37;1.03;;;24.60;66.30;;;;;;5004037;28;46025;-74
2022/09/07 04:41:27;;;;;;;2.27;1.20;;;24.70;65.90;;;;;;4984653;28;44773;-75
2022/09/07 04:43:56;;;;;;;1.53;1.33;;;24.80;65.80;;;;;;5005826;28;43735;-76
2022/09/07 04:46:25;;;;;;;1.80;1.60;;;24.70;65.40;;;;;;4987954;28;43820;-76
2022/09/07 04:48:56;;;;;;;3.50;1.70;;;24.70;65.50;;;;;;5005597;28;43612;-76
2022/09/07 04:51:26;;;;;;;5.53;1.90;;;24.60;65.80;;;;;;5005256;28;43418;-74
2022/09/07 04:53:55;;;;;;;6.77;1.90;;;24.60;66.00;;;;;;5003923;28;43370;-76
2022/09/07 04:56:23;;;;;;;5.03;1.90;;;24.60;66.60;;;;;;5005632;28;43472;-75
2022/09/07 04:58:51;;;;;;;4.83;1.70;;;24.50;65.90;;;;;;4983065;28;45741;-76
2022/09/07 05:01:20;;;;;;;1.87;1.70;;;24.50;66.60;;;;;;5006038;28;43473;-76
2022/09/07 05:03:48;;;;;;;6.43;2.10;;;24.50;66.60;;;;;;4988224;28;43522;-75
2022/09/07 05:06:18;;;;;;;3.07;1.83;;;24.50;66.30;;;;;;5006174;28;43398;-77
2022/09/07 05:08:48;;;;;;;2.13;1.50;;;24.40;66.20;;;;;;5006068;28;43898;-76
2022/09/07 05:11:16;;;;;;;3.20;1.70;;;24.40;67.00;;;;;;5005813;28;43741;-74
2022/09/07 05:13:44;;;;;;;1.60;1.50;;;24.40;66.90;;;;;;5007753;28;43334;-74
2022/09/07 05:16:13;;;;;;;1.80;1.70;;;24.50;66.70;;;;;;4991779;28;43452;-76
2022/09/07 05:18:41;;;;;;;2.03;1.60;;;24.60;66.20;;;;;;4991445;28;45602;-75
2022/09/07 05:21:11;;;;;;;2.17;1.80;;;24.70;66.00;;;;;;5002362;28;43871;-76
2022/09/07 05:23:40;;;;;;;1.40;1.40;;;24.70;66.60;;;;;;5002842;28;43477;-74
2022/09/07 05:26:08;;;;;;;2.23;1.77;;;24.70;65.60;;;;;;5008306;28;43386;-75
2022/09/07 05:28:36;;;;;;;2.13;2.03;;;24.60;65.90;;;;;;5001215;28;45774;-75
2022/09/07 05:31:05;;;;;;;1.70;1.60;;;24.60;66.10;;;;;;5002840;28;43529;-76
2022/09/07 05:33:44;;;;;;;1.80;1.70;;;24.60;66.10;;;;;;4991159;28;43459;-74
2022/09/07 05:36:32;;;;;;;2.00;1.80;;;24.50;65.80;;;;;;5009243;28;43410;-72
2022/09/07 05:39:02;;;;;;;2.30;1.70;;;24.50;66.20;;;;;;5009130;28;43618;-75
2022/09/07 05:41:30;;;;;;;4.50;1.77;;;24.40;66.30;;;;;;5007368;28;45124;-74
2022/09/07 05:43:58;;;;;;;1.80;1.70;;;24.40;66.20;;;;;;5009086;28;43317;-75
2022/09/07 05:46:46;;;;;;;1.70;1.70;;;24.40;66.10;;;;;;5009270;28;43449;-75
2022/09/07 05:49:14;;;;;;;1.53;1.43;;;24.40;66.30;;;;;;4990231;28;45305;-74
2022/09/07 05:51:42;;;;;;;1.60;1.60;;;24.40;66.60;;;;;;5008904;28;43375;-77
2022/09/07 05:54:12;;;;;;;1.40;1.40;;;24.40;66.30;;;;;;5007439;28;43414;-72
2022/09/07 05:56:40;;;;;;;1.70;1.60;;;24.50;66.00;;;;;;4991302;28;43937;-74
2022/09/07 05:59:08;;;;;;;1.70;1.60;;;24.70;65.70;;;;;;5008393;28;43926;-73
2022/09/07 06:01:36;;;;;;;1.90;1.67;;;24.70;65.40;;;;;;5008225;28;43362;-75
2022/09/07 06:04:04;;;;;;;1.67;1.67;;;24.70;65.40;;;;;;5008597;28;43882;-75
2022/09/07 06:06:32;;;;;;;1.90;1.80;;;24.70;65.40;;;;;;5008961;28;43298;-76
2022/09/07 06:09:01;;;;;;;1.70;1.60;;;24.60;65.70;;;;;;5006320;28;45589;-74
2022/09/07 06:11:31;;;;;;;3.80;1.40;;;24.50;65.70;;;;;;5007967;28;43486;-75
2022/09/07 06:13:59;;;;;;;4.97;1.80;;;24.50;65.80;;;;;;5008556;28;43332;-75
2022/09/07 06:16:27;;;;;;;3.20;1.60;;;24.50;65.80;;;;;;5008634;28;43350;-76
2022/09/07 06:18:55;;;;;;;2.87;1.57;;;24.40;66.00;;;;;;5008238;28;44034;-74
2022/09/07 06:21:23;;;;;;;1.83;1.60;;;24.40;66.30;;;;;;5007671;28;43438;-74
2022/09/07 06:23:52;;;;;;;1.60;1.50;;;24.40;66.00;;;;;;4990567;28;43995;-75
2022/09/07 06:26:20;;;;;;;1.40;1.40;;;24.50;65.80;;;;;;5008365;28;43450;-77
2022/09/07 06:28:49;;;;;;;2.47;1.87;;;24.70;65.50;;;;;;4990297;28;46044;-75
2022/09/07 06:31:23;;;;;;;2.63;2.33;;;24.70;65.30;;;;;;5007463;28;43457;-74
2022/09/07 06:33:51;;;;;;;1.90;1.80;;;24.60;65.20;;;;;;5007960;28;43430;-74
2022/09/07 06:36:20;;;;;;;1.90;1.70;;;24.60;66.10;;;;;;5008543;28;43478;-73
2022/09/07 06:38:49;;;;;;;1.97;1.77;;;24.50;65.70;;;;;;5000235;28;43783;-76
2022/09/07 06:41:17;;;;;;;1.70;1.70;;;24.50;65.90;;;;;;5008142;28;43694;-76
2022/09/07 06:44:07;;;;;;;1.60;1.60;;;24.50;65.90;;;;;;5007743;28;43862;-76
2022/09/07 06:46:35;;;;;;;2.10;2.00;;;24.40;65.80;;;;;;5008081;28;43914;-76
2022/09/07 06:49:23;;;;;;;1.60;1.50;;;24.40;66.20;;;;;;4989385;28;45864;-74
2022/09/07 06:51:51;;;;;;;1.80;1.70;;;24.40;66.30;;;;;;5007584;28;43355;-75
2022/09/07 06:54:19;;;;;;;1.60;1.50;;;24.40;66.10;;;;;;5007688;28;43353;-75
2022/09/07 06:57:07;;;;;;;1.60;1.50;;;24.30;66.10;;;;;;5007787;28;43671;-74
2022/09/07 06:59:38;;;;;;;2.00;1.90;;;24.30;66.40;;;;;;5007429;28;43622;-77
2022/09/07 07:02:06;;;;;;;1.77;1.60;;;24.30;66.60;;;;;;5007655;28;43508;-74
2022/09/07 07:04:34;;;;;;;1.73;1.63;;;24.40;66.40;;;;;;4989654;28;43990;-75
2022/09/07 07:07:10;;;;;;;3.40;1.90;;;24.50;66.10;;;;;;5007961;28;43442;-75
2022/09/07 07:09:38;;;;;;;1.90;1.80;;;24.60;65.70;;;;;;5007609;28;43614;-74
2022/09/07 07:12:07;;;;;;;2.47;1.73;;;24.60;65.50;;;;;;5002621;28;44418;-74
2022/09/07 07:14:35;;;;;;;2.87;1.77;;;24.60;65.50;;;;;;4987983;28;43424;-74
2022/09/07 07:17:09;;;;;;;1.97;1.87;;;24.50;65.60;;;;;;4990003;28;43505;-74
2022/09/07 07:19:37;;;;;;;1.80;1.70;;;24.50;66.00;;;;;;4989308;28;45447;-76
2022/09/07 07:22:05;;;;;;;1.80;1.70;;;24.40;66.10;;;;;;5007235;28;43825;-75
2022/09/07 07:24:53;;;;;;;1.60;1.50;;;24.40;65.90;;;;;;4999329;28;43493;-76
2022/09/07 07:27:21;;;;;;;1.63;1.53;;;24.40;66.10;;;;;;5007442;28;43429;-76
2022/09/07 07:29:51;;;;;;;2.73;1.90;;;24.30;66.30;;;;;;4989448;28;44091;-76
2022/09/07 07:32:20;;;;;;;2.70;1.80;;;24.30;66.60;;;;;;5007099;28;43418;-76
2022/09/07 07:34:48;;;;;;;1.97;1.87;;;24.40;66.40;;;;;;5006770;28;43373;-76
2022/09/07 07:37:16;;;;;;;2.60;1.90;;;24.50;66.20;;;;;;5007538;28;43361;-75
2022/09/07 07:39:44;;;;;;;1.87;1.70;;;24.50;65.80;;;;;;5006863;28;43868;-76
2022/09/07 07:42:33;;;;;;;1.70;1.70;;;24.50;65.70;;;;;;5006841;28;43431;-73
2022/09/07 07:45:01;;;;;;;2.00;1.90;;;24.50;65.70;;;;;;4982910;28;43394;-75
2022/09/07 07:47:50;;;;;;;1.90;1.80;;;24.40;65.90;;;;;;4989470;28;44051;-76
2022/09/07 07:50:18;;;;;;;1.70;1.60;;;24.40;66.40;;;;;;5006682;28;43931;-75
2022/09/07 07:53:04;;;;;;;1.83;1.73;;;24.40;66.30;;;;;;5006897;28;43428;-75
2022/09/07 07:55:52;;;;;;;2.27;1.80;;;24.30;66.20;;;;;;5006592;28;43469;-75
2022/09/07 07:58:20;;;;;;;1.70;1.60;;;24.30;66.60;;;;;;5007218;28;43410;-75
2022/09/07 08:00:48;;;;;;;1.93;1.83;;;24.30;66.90;;;;;;5006677;28;43951;-75
2022/09/07 08:03:25;;;;;;;1.87;1.77;;;24.30;66.60;;;;;;5006586;28;43427;-75
2022/09/07 08:05:53;;;;;;;1.80;1.70;;;24.50;66.50;;;;;;5006584;28;43432;-75
2022/09/07 08:08:22;;;;;;;1.93;1.83;;;24.50;65.90;;;;;;5006831;28;43457;-74
2022/09/07 08:10:50;;;;;;;2.03;1.80;;;24.60;65.90;;;;;;5006504;28;43958;-75
2022/09/07 08:13:20;;;;;;;2.80;1.70;;;24.50;66.50;;;;;;4988574;28;44925;-74
2022/09/07 08:15:48;;;;;;;2.27;1.80;;;24.50;65.90;;;;;;4988691;28;43427;-75
2022/09/07 08:18:16;;;;;;;1.90;1.80;;;24.40;66.30;;;;;;5005165;28;43489;-75
2022/09/07 08:20:45;;;;;;;1.73;1.70;;;24.40;66.40;;;;;;4988444;28;45625;-75
2022/09/07 08:23:14;;;;;;;1.70;1.60;;;24.40;66.30;;;;;;5006504;28;43817;-74
2022/09/07 08:25:49;;;;;;;2.20;2.00;;;24.30;66.40;;;;;;5006223;28;43373;-74
2022/09/07 08:28:17;;;;;;;1.70;1.60;;;24.30;66.80;;;;;;5006638;28;43521;-74
2022/09/07 08:30:45;;;;;;;2.20;2.00;;;24.30;66.90;;;;;;5006241;28;43904;-75
2022/09/07 08:33:13;;;;;;;1.80;1.80;;;24.30;66.70;;;;;;5006073;28;43942;-76
2022/09/07 08:35:41;;;;;;;2.00;1.90;;;24.30;66.70;;;;;;4987920;28;43788;-74
2022/09/07 08:38:10;;;;;;;2.90;1.90;;;24.20;66.90;;;;;;5006264;28;43392;-75
2022/09/07 08:40:38;;;;;;;2.10;1.90;;;24.20;67.20;;;;;;5006271;28;43848;-74
2022/09/07 08:43:10;;;;;;;2.10;1.90;;;24.30;67.10;;;;;;5005840;28;43373;-75
2022/09/07 08:45:39;;;;;;;8.10;2.00;;;24.40;66.80;;;;;;5006294;28;43520;-74
2022/09/07 08:48:09;;;;;;;3.17;2.07;;;24.50;66.40;;;;;;4991151;28;43414;-75
2022/09/07 08:50:38;;;;;;;2.67;1.87;;;24.60;66.20;;;;;;5009444;28;43592;-77
2022/09/07 08:53:08;;;;;;;2.10;2.00;;;24.60;66.10;;;;;;5009386;28;44043;-75
2022/09/07 08:55:39;;;;;;;2.20;2.00;;;24.50;66.00;;;;;;5008306;28;43901;-74
2022/09/07 08:58:10;;;;;;;2.73;1.70;;;24.40;66.30;;;;;;4991890;28;43413;-74
2022/09/07 09:00:58;;;;;;;3.23;1.70;;;24.40;66.40;;;;;;4991507;28;45184;-74
2022/09/07 09:03:50;;;;;;;2.20;1.97;;;24.40;66.50;;;;;;5008732;28;43278;-76
2022/09/07 09:06:40;;;;;;;2.07;1.97;;;24.30;66.50;;;;;;5009164;28;43444;-73
2022/09/07 09:09:13;;;;;;;2.07;1.90;;;24.30;67.00;;;;;;5010014;28;43468;-74
2022/09/07 09:11:49;;;;;;;3.00;2.20;;;24.30;66.90;;;;;;4991360;28;45648;-74
2022/09/07 09:14:22;;;;;;;2.10;1.70;;;24.30;66.90;;;;;;5009502;28;43387;-74
2022/09/07 09:16:52;;;;;;;2.20;2.00;;;24.30;66.90;;;;;;5009730;28;43374;-76
2022/09/07 09:19:30;;;;;;;2.30;2.20;;;24.20;67.20;;;;;;4991421;28;43457;-76
2022/09/07 09:22:15;;;;;;;2.40;2.20;;;24.30;67.00;;;;;;5009099;28;43593;-75
2022/09/07 09:24:45;;;;;;;2.40;2.00;;;24.40;66.70;;;;;;5004209;28;43583;-76
2022/09/07 09:27:15;;;;;;;2.30;1.90;;;24.50;66.20;;;;;;5008921;28;43498;-76
2022/09/07 09:29:43;;;;;;;2.03;1.93;;;24.60;66.00;;;;;;4991443;28;43430;-74
2022/09/07 09:32:30;;;;;;;2.13;2.00;;;24.60;65.90;;;;;;5009339;28;43868;-73
2022/09/07 09:35:00;;;;;;;1.77;1.77;;;24.50;65.90;;;;;;5008867;28;43645;-76
2022/09/07 09:37:34;;;;;;;1.83;1.80;;;24.50;66.30;;;;;;5009149;28;43975;-75
2022/09/07 09:40:02;;;;;;;2.20;2.10;;;24.40;66.30;;;;;;5009430;28;43430;-74
2022/09/07 09:42:33;;;;;;;2.30;2.20;;;24.40;66.30;;;;;;5008557;28;43605;-76
2022/09/07 09:45:09;;;;;;;2.33;2.20;;;24.40;66.40;;;;;;5002176;28;43493;-73
2022/09/07 09:47:37;;;;;;;1.87;1.77;;;24.30;66.70;;;;;;5008802;28;43411;-76
2022/09/07 09:50:07;;;;;;;2.17;2.07;;;24.30;66.60;;;;;;4991380;28;43745;-74
2022/09/07 09:52:35;;;;;;;1.80;1.80;;;24.30;66.60;;;;;;4990794;28;45740;-74
2022/09/07 09:55:22;;;;;;;2.40;2.10;;;24.30;66.70;;;;;;5008176;28;43792;-75
2022/09/07 09:58:04;;;;;;;2.30;2.20;;;24.30;66.90;;;;;;5008244;28;43443;-74
2022/09/07 10:00:55;;;;;;;1.93;1.90;;;24.30;67.00;;;;;;5003717;28;43453;-73
2022/09/07 10:03:43;;;;;;;1.97;1.97;;;24.30;66.60;;;;;;5007883;28;43872;-75
2022/09/07 10:06:30;;;;;;;2.17;2.07;;;24.40;66.20;;;;;;5008254;28;44175;-75
2022/09/07 10:08:59;;;;;;;2.03;2.03;;;24.50;66.00;;;;;;4990587;28;43450;-74
2022/09/07 10:11:41;;;;;;;2.17;2.10;;;24.50;65.90;;;;;;5008679;28;43404;-75
2022/09/07 10:14:32;;;;;;;2.77;2.53;;;24.50;66.00;;;;;;5005830;28;45691;-76
2022/09/07 10:17:00;;;;;;;2.27;2.17;;;24.40;66.40;;;;;;5008260;28;43429;-75
2022/09/07 10:19:33;;;;;;;2.10;2.00;;;24.40;66.30;;;;;;5008162;28;43411;-74
2022/09/07 10:22:02;;;;;;;2.00;1.90;;;24.40;66.40;;;;;;5002049;28;43488;-75
2022/09/07 10:24:33;;;;;;;2.10;2.00;;;24.30;66.50;;;;;;4989156;28;45389;-74
2022/09/07 10:27:01;;;;;;;2.43;2.30;;;24.30;67.50;;;;;;5000239;28;45021;-75
2022/09/07 10:29:33;;;;;;;2.03;2.00;;;24.30;66.70;;;;;;4989592;28;44037;-75
2022/09/07 10:32:08;;;;;;;1.90;1.80;;;24.30;66.70;;;;;;5008537;28;43955;-76
2022/09/07 10:34:42;;;;;;;2.23;2.03;;;24.30;66.70;;;;;;5007862;28;43927;-76
2022/09/07 10:37:10;;;;;;;2.33;2.13;;;24.30;66.90;;;;;;4989649;28;44064;-75
2022/09/07 10:39:41;;;;;;;2.20;2.10;;;24.30;66.50;;;;;;5008144;28;43427;-76
2022/09/07 10:42:22;;;;;;;2.30;2.20;;;24.30;66.00;;;;;;5008049;28;43382;-75
2022/09/07 10:44:55;;;;;;;2.03;1.93;;;24.40;65.50;;;;;;5007828;28;43838;-75
2022/09/07 10:47:28;;;;;;;2.00;1.90;;;24.50;65.00;;;;;;4989700;28;45117;-74
2022/09/07 10:49:57;;;;;;;2.80;2.00;;;24.50;65.10;;;;;;5007985;28;43846;-75
2022/09/07 10:52:48;;;;;;;2.00;1.90;;;24.50;65.50;;;;;;5004214;28;43676;-74
2022/09/07 10:55:17;;;;;;;1.87;1.77;;;24.40;65.60;;;;;;4989726;28;45637;-79
2022/09/07 10:57:55;;;;;;;2.00;1.90;;;24.40;65.70;;;;;;5007787;28;43458;-74
2022/09/07 11:00:25;;;;;;;1.73;1.73;;;24.40;65.90;;;;;;5007443;28;43952;-73
2022/09/07 11:03:07;;;;;;;1.87;1.87;;;24.30;66.00;;;;;;5007732;28;43455;-74
2022/09/07 11:06:13;;;;;;;3.03;2.07;;;24.30;66.20;;;;;;4988957;28;45380;-75
2022/09/07 11:08:53;;;;;;;2.00;1.90;;;24.30;66.40;;;;;;5007730;28;43465;-73
2022/09/07 11:11:42;;;;;;;1.53;1.53;;;24.30;66.20;;;;;;4989065;28;43401;-76
2022/09/07 11:14:32;;;;;;;1.90;1.83;;;24.30;66.40;;;;;;5007781;28;43976;-74
2022/09/07 11:17:03;;;;;;;2.83;1.70;;;24.30;66.50;;;;;;5007304;28;43847;-75
2022/09/07 11:19:33;;;;;;;2.60;2.40;;;24.20;66.60;;;;;;5007004;28;43430;-74
2022/09/07 11:22:06;;;;;;;2.57;1.90;;;24.30;66.20;;;;;;4999700;28;43948;-76
2022/09/07 11:24:37;;;;;;;2.67;2.10;;;24.40;65.90;;;;;;5007063;28;43421;-74
2022/09/07 11:27:07;;;;;;;2.00;1.90;;;24.50;65.40;;;;;;5007285;28;43602;-75
2022/09/07 11:29:38;;;;;;;1.90;1.80;;;24.60;65.30;;;;;;5007315;28;43425;-76
2022/09/07 11:32:09;;;;;;;2.03;1.90;;;24.60;65.10;;;;;;5007121;28;44029;-75
2022/09/07 11:34:39;;;;;;;1.90;1.80;;;24.50;65.20;;;;;;5007611;28;43373;-74
2022/09/07 11:37:09;;;;;;;2.20;1.90;;;24.50;65.50;;;;;;5006923;28;43593;-75
2022/09/07 11:39:40;;;;;;;1.90;1.83;;;24.50;65.50;;;;;;4989043;28;45349;-74
2022/09/07 11:42:13;;;;;;;1.70;1.70;;;24.40;65.40;;;;;;5006722;28;43990;-74
2022/09/07 11:45:02;;;;;;;1.90;1.80;;;24.40;65.70;;;;;;4989492;28;43785;-75
2022/09/07 11:47:34;;;;;;;2.03;1.73;;;24.30;65.80;;;;;;5006706;28;44077;-74
2022/09/07 11:50:02;;;;;;;1.80;1.80;;;24.30;65.80;;;;;;5007046;28;43440;-74
2022/09/07 11:52:33;;;;;;;1.80;1.80;;;24.30;65.80;;;;;;4988066;28;43447;-75
2022/09/07 11:55:02;;;;;;;1.80;1.80;;;24.30;65.90;;;;;;4989360;28;43364;-75
2022/09/07 11:57:40;;;;;;;1.97;1.83;;;24.20;66.00;;;;;;5006313;28;44460;-74
2022/09/07 12:00:11;;;;;;;2.00;1.90;;;24.20;66.20;;;;;;5006577;28;43353;-72
2022/09/07 12:03:01;;;;;;;2.10;2.00;;;24.30;66.00;;;;;;5006860;28;43429;-75
2022/09/07 12:05:41;;;;;;;1.80;1.70;;;24.40;65.60;;;;;;5007005;28;43324;-77
2022/09/07 12:08:18;;;;;;;2.03;1.93;;;24.50;65.00;;;;;;4988199;28;46077;-74
2022/09/07 12:11:05;;;;;;;1.67;1.57;;;24.60;64.90;;;;;;4989040;28;44410;-73
2022/09/07 12:14:06;;;;;;;2.33;1.90;;;24.60;64.90;;;;;;5006707;28;43365;-74
2022/09/07 12:16:40;;;;;;;2.17;1.63;;;24.50;65.10;;;;;;5007155;28;43398;-75
2022/09/07 12:19:16;;;;;;;1.97;1.87;;;24.40;65.50;;;;;;5006320;28;43864;-74
2022/09/07 12:21:44;;;;;;;1.80;1.77;;;24.40;65.40;;;;;;5006326;28;43483;-74
2022/09/07 12:24:38;;;;;;;1.80;1.70;;;24.40;65.50;;;;;;5006073;28;43414;-75
2022/09/07 12:27:08;;;;;;;1.67;1.57;;;24.30;65.70;;;;;;4983478;28;43931;-74
2022/09/07 12:29:36;;;;;;;1.90;1.50;;;24.30;65.90;;;;;;5006148;28;43816;-75
2022/09/07 12:32:04;;;;;;;1.87;1.77;;;24.30;65.80;;;;;;4988309;28;44671;-74
2022/09/07 12:34:54;;;;;;;1.60;1.60;;;24.30;65.80;;;;;;5006243;28;43361;-73
2022/09/07 12:37:39;;;;;;;1.73;1.73;;;24.20;65.90;;;;;;5006351;28;43381;-73
2022/09/07 12:40:50;;;;;;;1.77;1.67;;;24.20;66.20;;;;;;5006055;28;43932;-74
2022/09/07 12:43:52;;;;;;;1.57;1.57;;;24.30;66.00;;;;;;4981878;28;43461;-75
2022/09/07 12:46:35;;;;;;;2.00;1.60;;;24.40;65.40;;;;;;5005184;28;43710;-76
2022/09/07 12:49:06;;;;;;;1.43;1.43;;;24.50;65.20;;;;;;5001556;28;43448;-74
2022/09/07 12:51:37;;;;;;;1.60;1.60;;;24.50;65.10;;;;;;5003528;28;46032;-73
2022/09/07 12:54:27;;;;;;;1.80;1.70;;;24.50;65.10;;;;;;5005664;28;43481;-75
2022/09/07 12:56:57;;;;;;;1.70;1.60;;;24.40;65.50;;;;;;5006229;28;43374;-75
2022/09/07 12:59:56;;;;;;;1.70;1.70;;;24.40;65.60;;;;;;4988249;28;43424;-75
2022/09/07 13:02:33;;;;;;;1.63;1.60;;;24.30;65.50;;;;;;5000030;28;43589;-74
2022/09/07 13:05:06;;;;;;;1.83;1.73;;;24.30;66.30;;;;;;5005920;28;43468;-75
2022/09/07 13:07:46;;;;;;;1.70;1.60;;;24.30;66.00;;;;;;5005934;28;43415;-75
2022/09/07 13:10:30;;;;;;;1.97;1.87;;;24.20;65.80;;;;;;5006444;28;43565;-76
2022/09/07 13:13:02;;;;;;;2.43;1.77;;;24.30;65.60;;;;;;5005517;28;43858;-73
2022/09/07 13:15:37;;;;;;;1.93;1.70;;;24.40;65.00;;;;;;4999530;28;43345;-73
2022/09/07 13:18:05;;;;;;;1.63;1.60;;;24.50;64.80;;;;;;5005873;28;43377;-76